sensor_id;sensor_type;location;lat;lon;timestamp;P1;durP1;ratioP1;P2;durP2;ratioP2
74100;SDS011;62462;52.530;21.682;2023-04-06T00:01:45;9.82;;;5.63;;
74100;SDS011;62462;52.530;21.682;2023-04-06T00:04:12;16.23;;;6.22;;
74100;SDS011;62462;52.530;21.682;2023-04-06T00:06:37;14.15;;;6.10;;
74100;SDS011;62462;52.530;21.682;2023-04-06T00:09:03;13.77;;;6.82;;
74100;SDS011;62462;52.530;21.682;2023-04-06T00:11:29;14.32;;;6.72;;
74100;SDS011;62462;52.530;21.682;2023-04-06T00:13:55;15.63;;;6.28;;
74100;SDS011;62462;52.530;21.682;2023-04-06T00:16:21;15.00;;;8.10;;
74100;SDS011;62462;52.530;21.682;2023-04-06T00:18:46;14.38;;;6.85;;
74100;SDS011;62462;52.530;21.682;2023-04-06T00:21:12;16.67;;;8.23;;
74100;SDS011;62462;52.530;21.682;2023-04-06T00:23:39;17.33;;;9.35;;
74100;SDS011;62462;52.530;21.682;2023-04-06T00:26:06;17.05;;;9.13;;
74100;SDS011;62462;52.530;21.682;2023-04-06T00:28:32;19.05;;;9.13;;
74100;SDS011;62462;52.530;21.682;2023-04-06T00:30:57;12.93;;;7.75;;
74100;SDS011;62462;52.530;21.682;2023-04-06T00:33:23;13.70;;;7.38;;
74100;SDS011;62462;52.530;21.682;2023-04-06T00:35:50;19.38;;;6.55;;
74100;SDS011;62462;52.530;21.682;2023-04-06T00:38:16;12.32;;;6.50;;
74100;SDS011;62462;52.530;21.682;2023-04-06T00:40:42;13.02;;;5.65;;
74100;SDS011;62462;52.530;21.682;2023-04-06T00:43:11;12.20;;;6.60;;
74100;SDS011;62462;52.530;21.682;2023-04-06T00:45:38;12.25;;;6.10;;
74100;SDS011;62462;52.530;21.682;2023-04-06T00:48:04;14.07;;;6.20;;
74100;SDS011;62462;52.530;21.682;2023-04-06T00:50:31;12.80;;;6.10;;
74100;SDS011;62462;52.530;21.682;2023-04-06T00:52:58;9.50;;;5.32;;
74100;SDS011;62462;52.530;21.682;2023-04-06T00:55:25;11.13;;;5.63;;
74100;SDS011;62462;52.530;21.682;2023-04-06T00:57:52;11.23;;;5.47;;
74100;SDS011;62462;52.530;21.682;2023-04-06T01:00:18;11.98;;;5.75;;
74100;SDS011;62462;52.530;21.682;2023-04-06T01:02:43;11.65;;;5.88;;
74100;SDS011;62462;52.530;21.682;2023-04-06T01:05:13;9.25;;;5.20;;
74100;SDS011;62462;52.530;21.682;2023-04-06T01:07:39;11.88;;;5.13;;
74100;SDS011;62462;52.530;21.682;2023-04-06T01:10:05;9.95;;;5.32;;
74100;SDS011;62462;52.530;21.682;2023-04-06T01:12:31;13.25;;;5.97;;
74100;SDS011;62462;52.530;21.682;2023-04-06T01:14:57;12.45;;;6.38;;
74100;SDS011;62462;52.530;21.682;2023-04-06T01:17:23;9.80;;;5.60;;
74100;SDS011;62462;52.530;21.682;2023-04-06T01:19:49;11.63;;;5.68;;
74100;SDS011;62462;52.530;21.682;2023-04-06T01:22:16;10.77;;;5.85;;
74100;SDS011;62462;52.530;21.682;2023-04-06T01:24:42;12.93;;;5.25;;
74100;SDS011;62462;52.530;21.682;2023-04-06T01:27:08;11.95;;;5.72;;
74100;SDS011;62462;52.530;21.682;2023-04-06T01:29:34;10.02;;;5.90;;
74100;SDS011;62462;52.530;21.682;2023-04-06T01:32:00;11.02;;;6.22;;
74100;SDS011;62462;52.530;21.682;2023-04-06T01:34:26;13.68;;;6.50;;
74100;SDS011;62462;52.530;21.682;2023-04-06T01:36:52;11.48;;;5.95;;
74100;SDS011;62462;52.530;21.682;2023-04-06T01:39:18;14.40;;;6.70;;
74100;SDS011;62462;52.530;21.682;2023-04-06T01:41:45;11.75;;;6.00;;
74100;SDS011;62462;52.530;21.682;2023-04-06T01:44:12;13.27;;;6.00;;
74100;SDS011;62462;52.530;21.682;2023-04-06T01:46:41;14.18;;;6.20;;
74100;SDS011;62462;52.530;21.682;2023-04-06T01:49:07;10.63;;;6.15;;
74100;SDS011;62462;52.530;21.682;2023-04-06T01:51:33;11.60;;;6.07;;
74100;SDS011;62462;52.530;21.682;2023-04-06T01:53:58;9.82;;;5.90;;
74100;SDS011;62462;52.530;21.682;2023-04-06T01:56:24;11.38;;;6.15;;
74100;SDS011;62462;52.530;21.682;2023-04-06T01:58:50;10.43;;;5.53;;
74100;SDS011;62462;52.530;21.682;2023-04-06T02:01:16;10.90;;;5.82;;
74100;SDS011;62462;52.530;21.682;2023-04-06T02:03:42;12.38;;;6.70;;
74100;SDS011;62462;52.530;21.682;2023-04-06T02:06:08;11.13;;;6.07;;
74100;SDS011;62462;52.530;21.682;2023-04-06T02:08:34;11.98;;;6.28;;
74100;SDS011;62462;52.530;21.682;2023-04-06T02:11:00;16.50;;;6.35;;
74100;SDS011;62462;52.530;21.682;2023-04-06T02:13:26;12.70;;;5.55;;
74100;SDS011;62462;52.530;21.682;2023-04-06T02:15:52;11.00;;;5.45;;
74100;SDS011;62462;52.530;21.682;2023-04-06T02:18:17;10.57;;;5.63;;
74100;SDS011;62462;52.530;21.682;2023-04-06T02:20:44;11.30;;;5.50;;
74100;SDS011;62462;52.530;21.682;2023-04-06T02:23:10;10.70;;;5.47;;
74100;SDS011;62462;52.530;21.682;2023-04-06T02:25:36;10.82;;;6.07;;
74100;SDS011;62462;52.530;21.682;2023-04-06T02:28:02;11.82;;;5.10;;
74100;SDS011;62462;52.530;21.682;2023-04-06T02:30:29;14.40;;;5.93;;
74100;SDS011;62462;52.530;21.682;2023-04-06T02:32:56;12.77;;;6.35;;
74100;SDS011;62462;52.530;21.682;2023-04-06T02:35:22;11.02;;;6.22;;
74100;SDS011;62462;52.530;21.682;2023-04-06T02:37:50;11.27;;;6.20;;
74100;SDS011;62462;52.530;21.682;2023-04-06T02:40:15;12.82;;;7.20;;
74100;SDS011;62462;52.530;21.682;2023-04-06T02:42:41;14.35;;;8.63;;
74100;SDS011;62462;52.530;21.682;2023-04-06T02:45:07;18.00;;;9.52;;
74100;SDS011;62462;52.530;21.682;2023-04-06T02:47:33;18.67;;;9.00;;
74100;SDS011;62462;52.530;21.682;2023-04-06T02:49:59;14.75;;;7.75;;
74100;SDS011;62462;52.530;21.682;2023-04-06T02:52:25;13.82;;;7.35;;
74100;SDS011;62462;52.530;21.682;2023-04-06T02:54:51;11.20;;;5.60;;
74100;SDS011;62462;52.530;21.682;2023-04-06T02:57:17;11.13;;;5.28;;
74100;SDS011;62462;52.530;21.682;2023-04-06T02:59:43;9.00;;;5.40;;
74100;SDS011;62462;52.530;21.682;2023-04-06T03:02:09;12.05;;;5.93;;
74100;SDS011;62462;52.530;21.682;2023-04-06T03:04:35;11.98;;;5.50;;
74100;SDS011;62462;52.530;21.682;2023-04-06T03:07:01;12.55;;;5.93;;
74100;SDS011;62462;52.530;21.682;2023-04-06T03:09:26;11.68;;;5.50;;
74100;SDS011;62462;52.530;21.682;2023-04-06T03:11:52;10.57;;;5.57;;
74100;SDS011;62462;52.530;21.682;2023-04-06T03:14:18;9.38;;;5.13;;
74100;SDS011;62462;52.530;21.682;2023-04-06T03:16:47;11.95;;;5.43;;
74100;SDS011;62462;52.530;21.682;2023-04-06T03:19:13;9.73;;;4.97;;
74100;SDS011;62462;52.530;21.682;2023-04-06T03:21:40;9.20;;;4.82;;
74100;SDS011;62462;52.530;21.682;2023-04-06T03:24:06;13.35;;;5.20;;
74100;SDS011;62462;52.530;21.682;2023-04-06T03:26:32;8.68;;;4.75;;
74100;SDS011;62462;52.530;21.682;2023-04-06T03:28:58;9.80;;;4.97;;
74100;SDS011;62462;52.530;21.682;2023-04-06T03:31:25;7.82;;;4.60;;
74100;SDS011;62462;52.530;21.682;2023-04-06T03:33:51;7.63;;;4.22;;
74100;SDS011;62462;52.530;21.682;2023-04-06T03:36:17;7.78;;;4.43;;
74100;SDS011;62462;52.530;21.682;2023-04-06T03:38:43;9.13;;;4.93;;
74100;SDS011;62462;52.530;21.682;2023-04-06T03:41:09;10.52;;;4.95;;
74100;SDS011;62462;52.530;21.682;2023-04-06T03:43:35;9.18;;;4.10;;
74100;SDS011;62462;52.530;21.682;2023-04-06T03:46:01;9.65;;;5.10;;
74100;SDS011;62462;52.530;21.682;2023-04-06T03:48:27;8.73;;;4.57;;
74100;SDS011;62462;52.530;21.682;2023-04-06T03:50:53;7.47;;;4.25;;
74100;SDS011;62462;52.530;21.682;2023-04-06T03:53:18;8.95;;;4.70;;
74100;SDS011;62462;52.530;21.682;2023-04-06T03:55:45;10.00;;;4.47;;
74100;SDS011;62462;52.530;21.682;2023-04-06T03:58:10;10.50;;;4.50;;
74100;SDS011;62462;52.530;21.682;2023-04-06T04:00:36;9.15;;;4.25;;
74100;SDS011;62462;52.530;21.682;2023-04-06T04:03:02;8.32;;;4.55;;
74100;SDS011;62462;52.530;21.682;2023-04-06T04:05:28;7.85;;;4.10;;
74100;SDS011;62462;52.530;21.682;2023-04-06T04:07:54;7.65;;;3.92;;
74100;SDS011;62462;52.530;21.682;2023-04-06T04:10:20;8.93;;;4.40;;
74100;SDS011;62462;52.530;21.682;2023-04-06T04:12:46;9.18;;;4.43;;
74100;SDS011;62462;52.530;21.682;2023-04-06T04:15:12;7.68;;;4.43;;
74100;SDS011;62462;52.530;21.682;2023-04-06T04:17:38;9.38;;;4.15;;
74100;SDS011;62462;52.530;21.682;2023-04-06T04:20:04;8.15;;;4.25;;
74100;SDS011;62462;52.530;21.682;2023-04-06T04:22:30;8.07;;;3.88;;
74100;SDS011;62462;52.530;21.682;2023-04-06T04:24:56;6.75;;;3.88;;
74100;SDS011;62462;52.530;21.682;2023-04-06T04:27:22;7.25;;;3.70;;
74100;SDS011;62462;52.530;21.682;2023-04-06T04:29:48;8.90;;;4.30;;
74100;SDS011;62462;52.530;21.682;2023-04-06T04:32:14;6.88;;;4.35;;
74100;SDS011;62462;52.530;21.682;2023-04-06T04:34:40;8.73;;;4.20;;
74100;SDS011;62462;52.530;21.682;2023-04-06T04:37:06;9.43;;;4.20;;
74100;SDS011;62462;52.530;21.682;2023-04-06T04:39:32;6.28;;;4.05;;
74100;SDS011;62462;52.530;21.682;2023-04-06T04:41:58;7.90;;;3.63;;
74100;SDS011;62462;52.530;21.682;2023-04-06T04:44:24;7.40;;;4.18;;
74100;SDS011;62462;52.530;21.682;2023-04-06T04:46:49;8.55;;;3.97;;
74100;SDS011;62462;52.530;21.682;2023-04-06T04:49:15;10.35;;;4.05;;
74100;SDS011;62462;52.530;21.682;2023-04-06T04:51:41;7.45;;;3.53;;
74100;SDS011;62462;52.530;21.682;2023-04-06T04:54:07;6.25;;;3.97;;
74100;SDS011;62462;52.530;21.682;2023-04-06T04:56:33;10.23;;;4.10;;
74100;SDS011;62462;52.530;21.682;2023-04-06T04:58:59;7.78;;;4.07;;
74100;SDS011;62462;52.530;21.682;2023-04-06T05:01:25;7.72;;;3.75;;
74100;SDS011;62462;52.530;21.682;2023-04-06T05:03:50;7.47;;;3.47;;
74100;SDS011;62462;52.530;21.682;2023-04-06T05:06:16;8.20;;;3.65;;
74100;SDS011;62462;52.530;21.682;2023-04-06T05:08:44;7.90;;;3.85;;
74100;SDS011;62462;52.530;21.682;2023-04-06T05:11:10;7.82;;;3.70;;
74100;SDS011;62462;52.530;21.682;2023-04-06T05:13:36;7.97;;;3.67;;
74100;SDS011;62462;52.530;21.682;2023-04-06T05:16:02;6.20;;;3.50;;
74100;SDS011;62462;52.530;21.682;2023-04-06T05:18:28;6.57;;;3.25;;
74100;SDS011;62462;52.530;21.682;2023-04-06T05:20:53;6.35;;;3.65;;
74100;SDS011;62462;52.530;21.682;2023-04-06T05:23:20;7.13;;;3.60;;
74100;SDS011;62462;52.530;21.682;2023-04-06T05:25:46;5.50;;;3.50;;
74100;SDS011;62462;52.530;21.682;2023-04-06T05:28:11;6.38;;;3.42;;
74100;SDS011;62462;52.530;21.682;2023-04-06T05:30:39;7.70;;;3.95;;
74100;SDS011;62462;52.530;21.682;2023-04-06T05:33:05;9.18;;;4.72;;
74100;SDS011;62462;52.530;21.682;2023-04-06T05:35:31;10.70;;;4.53;;
74100;SDS011;62462;52.530;21.682;2023-04-06T05:37:57;8.90;;;4.20;;
74100;SDS011;62462;52.530;21.682;2023-04-06T05:40:23;10.98;;;5.32;;
74100;SDS011;62462;52.530;21.682;2023-04-06T05:42:48;9.50;;;4.40;;
74100;SDS011;62462;52.530;21.682;2023-04-06T05:45:15;6.00;;;3.78;;
74100;SDS011;62462;52.530;21.682;2023-04-06T05:47:43;7.63;;;4.30;;
74100;SDS011;62462;52.530;21.682;2023-04-06T05:50:11;8.10;;;4.07;;
74100;SDS011;62462;52.530;21.682;2023-04-06T05:52:37;7.22;;;3.45;;
74100;SDS011;62462;52.530;21.682;2023-04-06T05:55:03;6.78;;;3.70;;
74100;SDS011;62462;52.530;21.682;2023-04-06T05:57:29;5.70;;;3.20;;
74100;SDS011;62462;52.530;21.682;2023-04-06T05:59:55;7.72;;;3.38;;
74100;SDS011;62462;52.530;21.682;2023-04-06T06:02:21;6.05;;;3.45;;
74100;SDS011;62462;52.530;21.682;2023-04-06T06:04:47;4.47;;;3.03;;
74100;SDS011;62462;52.530;21.682;2023-04-06T06:07:16;6.90;;;3.55;;
74100;SDS011;62462;52.530;21.682;2023-04-06T06:09:42;8.38;;;4.18;;
74100;SDS011;62462;52.530;21.682;2023-04-06T06:12:08;9.10;;;4.00;;
74100;SDS011;62462;52.530;21.682;2023-04-06T06:14:34;6.35;;;3.58;;
74100;SDS011;62462;52.530;21.682;2023-04-06T06:17:00;5.22;;;3.17;;
74100;SDS011;62462;52.530;21.682;2023-04-06T06:19:26;5.80;;;2.78;;
74100;SDS011;62462;52.530;21.682;2023-04-06T06:21:52;6.13;;;3.33;;
74100;SDS011;62462;52.530;21.682;2023-04-06T06:24:18;7.63;;;2.80;;
74100;SDS011;62462;52.530;21.682;2023-04-06T06:26:44;8.35;;;4.47;;
74100;SDS011;62462;52.530;21.682;2023-04-06T06:29:09;6.38;;;3.08;;
74100;SDS011;62462;52.530;21.682;2023-04-06T06:31:35;7.38;;;3.35;;
74100;SDS011;62462;52.530;21.682;2023-04-06T06:34:01;5.30;;;3.13;;
74100;SDS011;62462;52.530;21.682;2023-04-06T06:36:27;5.88;;;2.90;;
74100;SDS011;62462;52.530;21.682;2023-04-06T06:38:55;6.50;;;3.50;;
74100;SDS011;62462;52.530;21.682;2023-04-06T06:41:21;6.95;;;3.00;;
74100;SDS011;62462;52.530;21.682;2023-04-06T06:43:47;4.90;;;2.60;;
74100;SDS011;62462;52.530;21.682;2023-04-06T06:46:13;6.10;;;2.95;;
74100;SDS011;62462;52.530;21.682;2023-04-06T06:48:39;4.65;;;2.60;;
74100;SDS011;62462;52.530;21.682;2023-04-06T06:51:05;5.65;;;2.90;;
74100;SDS011;62462;52.530;21.682;2023-04-06T06:53:31;4.53;;;2.85;;
74100;SDS011;62462;52.530;21.682;2023-04-06T06:55:57;9.25;;;3.00;;
74100;SDS011;62462;52.530;21.682;2023-04-06T06:58:23;6.72;;;3.20;;
74100;SDS011;62462;52.530;21.682;2023-04-06T07:00:48;7.60;;;3.97;;
74100;SDS011;62462;52.530;21.682;2023-04-06T07:03:14;5.93;;;3.20;;
74100;SDS011;62462;52.530;21.682;2023-04-06T07:05:46;5.10;;;2.53;;
74100;SDS011;62462;52.530;21.682;2023-04-06T07:08:18;4.20;;;2.50;;
74100;SDS011;62462;52.530;21.682;2023-04-06T07:10:44;5.32;;;2.95;;
74100;SDS011;62462;52.530;21.682;2023-04-06T07:13:10;6.40;;;3.67;;
74100;SDS011;62462;52.530;21.682;2023-04-06T07:15:37;6.95;;;2.75;;
74100;SDS011;62462;52.530;21.682;2023-04-06T07:18:03;5.15;;;2.83;;
74100;SDS011;62462;52.530;21.682;2023-04-06T07:20:29;5.43;;;2.78;;
74100;SDS011;62462;52.530;21.682;2023-04-06T07:22:55;5.25;;;3.20;;
74100;SDS011;62462;52.530;21.682;2023-04-06T07:25:21;7.28;;;3.55;;
74100;SDS011;62462;52.530;21.682;2023-04-06T07:27:47;8.88;;;3.80;;
74100;SDS011;62462;52.530;21.682;2023-04-06T07:30:13;10.50;;;5.68;;
74100;SDS011;62462;52.530;21.682;2023-04-06T07:32:39;6.78;;;2.60;;
74100;SDS011;62462;52.530;21.682;2023-04-06T07:35:05;5.35;;;2.95;;
74100;SDS011;62462;52.530;21.682;2023-04-06T07:37:31;4.57;;;2.67;;
74100;SDS011;62462;52.530;21.682;2023-04-06T07:39:57;7.45;;;3.03;;
74100;SDS011;62462;52.530;21.682;2023-04-06T07:42:23;6.20;;;2.33;;
74100;SDS011;62462;52.530;21.682;2023-04-06T07:44:48;4.07;;;2.40;;
74100;SDS011;62462;52.530;21.682;2023-04-06T07:47:14;4.53;;;2.55;;
74100;SDS011;62462;52.530;21.682;2023-04-06T07:49:40;5.22;;;2.95;;
74100;SDS011;62462;52.530;21.682;2023-04-06T07:52:06;5.68;;;2.70;;
74100;SDS011;62462;52.530;21.682;2023-04-06T07:54:32;5.75;;;2.92;;
74100;SDS011;62462;52.530;21.682;2023-04-06T07:56:58;4.13;;;2.40;;
74100;SDS011;62462;52.530;21.682;2023-04-06T07:59:24;5.70;;;2.80;;
74100;SDS011;62462;52.530;21.682;2023-04-06T08:01:49;5.40;;;3.03;;
74100;SDS011;62462;52.530;21.682;2023-04-06T08:04:15;9.73;;;4.00;;
74100;SDS011;62462;52.530;21.682;2023-04-06T08:06:41;4.90;;;2.90;;
74100;SDS011;62462;52.530;21.682;2023-04-06T08:09:07;5.40;;;2.60;;
74100;SDS011;62462;52.530;21.682;2023-04-06T08:11:33;5.70;;;2.72;;
74100;SDS011;62462;52.530;21.682;2023-04-06T08:13:59;4.32;;;2.70;;
74100;SDS011;62462;52.530;21.682;2023-04-06T08:16:25;4.30;;;2.30;;
74100;SDS011;62462;52.530;21.682;2023-04-06T08:18:51;5.60;;;3.08;;
74100;SDS011;62462;52.530;21.682;2023-04-06T08:21:17;5.70;;;2.85;;
74100;SDS011;62462;52.530;21.682;2023-04-06T08:23:43;7.72;;;5.00;;
74100;SDS011;62462;52.530;21.682;2023-04-06T08:26:11;5.13;;;3.60;;
74100;SDS011;62462;52.530;21.682;2023-04-06T08:28:37;10.70;;;3.45;;
74100;SDS011;62462;52.530;21.682;2023-04-06T08:31:06;6.57;;;3.10;;
74100;SDS011;62462;52.530;21.682;2023-04-06T08:33:33;6.28;;;3.85;;
74100;SDS011;62462;52.530;21.682;2023-04-06T08:36:10;5.45;;;3.55;;
74100;SDS011;62462;52.530;21.682;2023-04-06T08:38:37;6.63;;;4.40;;
74100;SDS011;62462;52.530;21.682;2023-04-06T08:41:07;4.03;;;3.00;;
74100;SDS011;62462;52.530;21.682;2023-04-06T08:43:34;8.10;;;5.38;;
74100;SDS011;62462;52.530;21.682;2023-04-06T08:46:24;5.00;;;2.97;;
74100;SDS011;62462;52.530;21.682;2023-04-06T08:48:57;5.40;;;2.83;;
74100;SDS011;62462;52.530;21.682;2023-04-06T08:51:25;4.85;;;2.75;;
74100;SDS011;62462;52.530;21.682;2023-04-06T08:53:52;4.30;;;2.90;;
74100;SDS011;62462;52.530;21.682;2023-04-06T08:56:22;3.75;;;2.38;;
74100;SDS011;62462;52.530;21.682;2023-04-06T08:58:49;5.53;;;2.80;;
74100;SDS011;62462;52.530;21.682;2023-04-06T09:01:17;3.78;;;2.55;;
74100;SDS011;62462;52.530;21.682;2023-04-06T09:03:51;6.15;;;2.90;;
74100;SDS011;62462;52.530;21.682;2023-04-06T09:06:20;9.60;;;3.20;;
74100;SDS011;62462;52.530;21.682;2023-04-06T09:08:46;7.22;;;5.35;;
74100;SDS011;62462;52.530;21.682;2023-04-06T09:11:12;7.43;;;5.07;;
74100;SDS011;62462;52.530;21.682;2023-04-06T09:13:51;7.32;;;4.80;;
74100;SDS011;62462;52.530;21.682;2023-04-06T09:16:19;10.48;;;6.18;;
74100;SDS011;62462;52.530;21.682;2023-04-06T09:18:45;7.15;;;3.97;;
74100;SDS011;62462;52.530;21.682;2023-04-06T09:21:12;5.55;;;3.65;;
74100;SDS011;62462;52.530;21.682;2023-04-06T09:23:38;6.35;;;3.28;;
74100;SDS011;62462;52.530;21.682;2023-04-06T09:26:11;7.90;;;4.40;;
74100;SDS011;62462;52.530;21.682;2023-04-06T09:31:07;9.05;;;4.05;;
74100;SDS011;62462;52.530;21.682;2023-04-06T09:33:37;4.63;;;2.90;;
74100;SDS011;62462;52.530;21.682;2023-04-06T09:36:04;6.97;;;3.92;;
74100;SDS011;62462;52.530;21.682;2023-04-06T09:38:30;6.93;;;3.88;;
74100;SDS011;62462;52.530;21.682;2023-04-06T09:40:56;7.57;;;3.85;;
74100;SDS011;62462;52.530;21.682;2023-04-06T09:43:26;8.27;;;4.05;;
74100;SDS011;62462;52.530;21.682;2023-04-06T09:45:52;8.82;;;4.38;;
74100;SDS011;62462;52.530;21.682;2023-04-06T09:48:20;9.60;;;4.25;;
74100;SDS011;62462;52.530;21.682;2023-04-06T09:50:50;9.25;;;4.30;;
74100;SDS011;62462;52.530;21.682;2023-04-06T09:53:24;10.32;;;4.93;;
74100;SDS011;62462;52.530;21.682;2023-04-06T09:55:57;7.60;;;4.50;;
74100;SDS011;62462;52.530;21.682;2023-04-06T09:58:27;6.25;;;4.10;;
74100;SDS011;62462;52.530;21.682;2023-04-06T10:01:02;7.60;;;4.63;;
74100;SDS011;62462;52.530;21.682;2023-04-06T10:06:21;7.40;;;4.45;;
74100;SDS011;62462;52.530;21.682;2023-04-06T10:08:49;6.80;;;4.35;;
74100;SDS011;62462;52.530;21.682;2023-04-06T10:11:16;7.45;;;4.80;;
74100;SDS011;62462;52.530;21.682;2023-04-06T10:13:44;6.43;;;4.05;;
74100;SDS011;62462;52.530;21.682;2023-04-06T10:16:13;7.28;;;3.53;;
74100;SDS011;62462;52.530;21.682;2023-04-06T10:18:41;7.60;;;4.03;;
74100;SDS011;62462;52.530;21.682;2023-04-06T10:21:12;7.80;;;4.20;;
74100;SDS011;62462;52.530;21.682;2023-04-06T10:23:47;8.73;;;5.18;;
74100;SDS011;62462;52.530;21.682;2023-04-06T10:26:16;7.53;;;4.30;;
74100;SDS011;62462;52.530;21.682;2023-04-06T10:28:45;9.20;;;4.03;;
74100;SDS011;62462;52.530;21.682;2023-04-06T10:31:12;6.20;;;3.83;;
74100;SDS011;62462;52.530;21.682;2023-04-06T10:33:38;8.65;;;4.85;;
74100;SDS011;62462;52.530;21.682;2023-04-06T10:36:10;5.70;;;3.85;;
74100;SDS011;62462;52.530;21.682;2023-04-06T10:38:40;8.27;;;5.05;;
74100;SDS011;62462;52.530;21.682;2023-04-06T10:41:07;5.35;;;3.90;;
74100;SDS011;62462;52.530;21.682;2023-04-06T10:43:35;6.63;;;3.83;;
74100;SDS011;62462;52.530;21.682;2023-04-06T10:46:02;6.03;;;3.75;;
74100;SDS011;62462;52.530;21.682;2023-04-06T10:48:36;5.70;;;3.90;;
74100;SDS011;62462;52.530;21.682;2023-04-06T10:51:14;6.30;;;4.05;;
74100;SDS011;62462;52.530;21.682;2023-04-06T10:53:41;6.50;;;4.32;;
74100;SDS011;62462;52.530;21.682;2023-04-06T10:56:18;7.68;;;4.10;;
74100;SDS011;62462;52.530;21.682;2023-04-06T10:58:48;5.35;;;3.88;;
74100;SDS011;62462;52.530;21.682;2023-04-06T11:01:16;7.25;;;4.13;;
74100;SDS011;62462;52.530;21.682;2023-04-06T11:03:43;6.28;;;3.95;;
74100;SDS011;62462;52.530;21.682;2023-04-06T11:06:09;9.30;;;5.30;;
74100;SDS011;62462;52.530;21.682;2023-04-06T11:08:35;13.02;;;5.63;;
74100;SDS011;62462;52.530;21.682;2023-04-06T11:11:06;8.00;;;4.75;;
74100;SDS011;62462;52.530;21.682;2023-04-06T11:16:20;9.23;;;4.18;;
74100;SDS011;62462;52.530;21.682;2023-04-06T11:21:34;7.10;;;3.33;;
74100;SDS011;62462;52.530;21.682;2023-04-06T11:24:13;7.30;;;3.92;;
74100;SDS011;62462;52.530;21.682;2023-04-06T11:26:49;6.03;;;3.58;;
74100;SDS011;62462;52.530;21.682;2023-04-06T11:29:20;6.75;;;3.35;;
74100;SDS011;62462;52.530;21.682;2023-04-06T11:31:51;7.68;;;3.53;;
74100;SDS011;62462;52.530;21.682;2023-04-06T11:34:19;6.22;;;3.85;;
74100;SDS011;62462;52.530;21.682;2023-04-06T11:36:47;6.55;;;3.88;;
74100;SDS011;62462;52.530;21.682;2023-04-06T11:39:17;6.68;;;3.50;;
74100;SDS011;62462;52.530;21.682;2023-04-06T11:44:14;7.28;;;3.95;;
74100;SDS011;62462;52.530;21.682;2023-04-06T11:46:40;7.50;;;4.10;;
74100;SDS011;62462;52.530;21.682;2023-04-06T11:49:06;6.05;;;3.88;;
74100;SDS011;62462;52.530;21.682;2023-04-06T11:51:35;5.85;;;3.90;;
74100;SDS011;62462;52.530;21.682;2023-04-06T11:54:02;7.72;;;4.05;;
74100;SDS011;62462;52.530;21.682;2023-04-06T11:56:28;4.82;;;3.40;;
74100;SDS011;62462;52.530;21.682;2023-04-06T11:58:55;7.07;;;3.78;;
74100;SDS011;62462;52.530;21.682;2023-04-06T12:01:23;6.43;;;4.00;;
74100;SDS011;62462;52.530;21.682;2023-04-06T12:03:50;6.95;;;3.67;;
74100;SDS011;62462;52.530;21.682;2023-04-06T12:06:16;7.82;;;4.25;;
74100;SDS011;62462;52.530;21.682;2023-04-06T12:08:42;9.27;;;3.78;;
74100;SDS011;62462;52.530;21.682;2023-04-06T12:11:09;6.00;;;4.13;;
74100;SDS011;62462;52.530;21.682;2023-04-06T12:13:36;7.13;;;3.72;;
74100;SDS011;62462;52.530;21.682;2023-04-06T12:16:02;6.47;;;3.72;;
74100;SDS011;62462;52.530;21.682;2023-04-06T12:18:29;5.50;;;4.00;;
74100;SDS011;62462;52.530;21.682;2023-04-06T12:20:55;5.47;;;3.42;;
74100;SDS011;62462;52.530;21.682;2023-04-06T12:23:21;6.80;;;3.60;;
74100;SDS011;62462;52.530;21.682;2023-04-06T12:25:47;6.00;;;3.47;;
74100;SDS011;62462;52.530;21.682;2023-04-06T12:28:13;7.00;;;3.13;;
74100;SDS011;62462;52.530;21.682;2023-04-06T12:30:39;6.63;;;3.40;;
74100;SDS011;62462;52.530;21.682;2023-04-06T12:33:06;6.30;;;3.33;;
74100;SDS011;62462;52.530;21.682;2023-04-06T12:35:35;5.90;;;3.55;;
74100;SDS011;62462;52.530;21.682;2023-04-06T12:38:02;9.90;;;3.88;;
74100;SDS011;62462;52.530;21.682;2023-04-06T12:40:28;6.85;;;3.75;;
74100;SDS011;62462;52.530;21.682;2023-04-06T12:42:54;8.15;;;3.58;;
74100;SDS011;62462;52.530;21.682;2023-04-06T12:45:20;6.15;;;2.83;;
74100;SDS011;62462;52.530;21.682;2023-04-06T12:47:46;5.07;;;3.30;;
74100;SDS011;62462;52.530;21.682;2023-04-06T12:50:12;5.28;;;3.42;;
74100;SDS011;62462;52.530;21.682;2023-04-06T12:52:37;6.15;;;3.38;;
74100;SDS011;62462;52.530;21.682;2023-04-06T12:55:03;4.53;;;3.13;;
74100;SDS011;62462;52.530;21.682;2023-04-06T12:57:31;5.82;;;3.28;;
74100;SDS011;62462;52.530;21.682;2023-04-06T12:59:57;6.15;;;3.42;;
74100;SDS011;62462;52.530;21.682;2023-04-06T13:02:23;6.32;;;3.30;;
74100;SDS011;62462;52.530;21.682;2023-04-06T13:04:49;5.72;;;3.55;;
74100;SDS011;62462;52.530;21.682;2023-04-06T13:07:15;4.68;;;2.95;;
74100;SDS011;62462;52.530;21.682;2023-04-06T13:09:41;5.18;;;2.95;;
74100;SDS011;62462;52.530;21.682;2023-04-06T13:12:07;5.53;;;3.50;;
74100;SDS011;62462;52.530;21.682;2023-04-06T13:14:33;6.82;;;3.60;;
74100;SDS011;62462;52.530;21.682;2023-04-06T13:16:59;3.65;;;2.60;;
74100;SDS011;62462;52.530;21.682;2023-04-06T13:19:25;5.70;;;3.13;;
74100;SDS011;62462;52.530;21.682;2023-04-06T13:21:51;6.78;;;3.33;;
74100;SDS011;62462;52.530;21.682;2023-04-06T13:24:17;6.28;;;3.10;;
74100;SDS011;62462;52.530;21.682;2023-04-06T13:26:44;6.65;;;3.50;;
74100;SDS011;62462;52.530;21.682;2023-04-06T13:29:10;5.32;;;2.88;;
74100;SDS011;62462;52.530;21.682;2023-04-06T13:31:36;5.68;;;3.58;;
74100;SDS011;62462;52.530;21.682;2023-04-06T13:34:03;5.55;;;3.55;;
74100;SDS011;62462;52.530;21.682;2023-04-06T13:36:30;4.78;;;3.22;;
74100;SDS011;62462;52.530;21.682;2023-04-06T13:38:57;4.72;;;2.92;;
74100;SDS011;62462;52.530;21.682;2023-04-06T13:41:24;6.20;;;3.25;;
74100;SDS011;62462;52.530;21.682;2023-04-06T13:43:51;6.55;;;3.33;;
74100;SDS011;62462;52.530;21.682;2023-04-06T13:46:17;6.75;;;3.75;;
74100;SDS011;62462;52.530;21.682;2023-04-06T13:48:43;5.57;;;3.30;;
74100;SDS011;62462;52.530;21.682;2023-04-06T13:51:10;7.05;;;3.33;;
74100;SDS011;62462;52.530;21.682;2023-04-06T13:53:37;7.53;;;3.55;;
74100;SDS011;62462;52.530;21.682;2023-04-06T13:56:03;6.22;;;3.17;;
74100;SDS011;62462;52.530;21.682;2023-04-06T13:58:29;6.75;;;4.05;;
74100;SDS011;62462;52.530;21.682;2023-04-06T14:01:01;7.07;;;3.78;;
74100;SDS011;62462;52.530;21.682;2023-04-06T14:03:31;9.30;;;4.72;;
74100;SDS011;62462;52.530;21.682;2023-04-06T14:05:57;12.00;;;5.50;;
74100;SDS011;62462;52.530;21.682;2023-04-06T14:08:24;9.77;;;4.70;;
74100;SDS011;62462;52.530;21.682;2023-04-06T14:10:50;8.38;;;4.57;;
74100;SDS011;62462;52.530;21.682;2023-04-06T14:13:16;9.15;;;4.85;;
74100;SDS011;62462;52.530;21.682;2023-04-06T14:15:42;8.23;;;4.60;;
74100;SDS011;62462;52.530;21.682;2023-04-06T14:18:08;6.55;;;4.20;;
74100;SDS011;62462;52.530;21.682;2023-04-06T14:20:34;9.93;;;4.10;;
74100;SDS011;62462;52.530;21.682;2023-04-06T14:23:00;6.05;;;4.22;;
74100;SDS011;62462;52.530;21.682;2023-04-06T14:25:26;8.93;;;4.00;;
74100;SDS011;62462;52.530;21.682;2023-04-06T14:27:53;5.70;;;3.95;;
74100;SDS011;62462;52.530;21.682;2023-04-06T14:30:19;8.55;;;4.82;;
74100;SDS011;62462;52.530;21.682;2023-04-06T14:32:45;7.55;;;4.90;;
74100;SDS011;62462;52.530;21.682;2023-04-06T14:35:11;10.57;;;5.70;;
74100;SDS011;62462;52.530;21.682;2023-04-06T14:37:36;9.68;;;5.50;;
74100;SDS011;62462;52.530;21.682;2023-04-06T14:40:02;9.10;;;5.40;;
74100;SDS011;62462;52.530;21.682;2023-04-06T14:42:28;12.07;;;6.18;;